Impacts METAR Board
IDs:

KDCA - Washington/National, VA, US

Updated at: 1600 UTC 20 Aug 2019
Potential Impact None Slight Moderate High
Time 20/04Z 20/05Z 20/06Z 20/07Z 20/08Z 20/09Z 20/10Z 20/11Z 20/12Z 20/13Z 20/14Z 20/15Z 20/16Z
Temp81 81 80 79 77 76 76 78 81 84 86 91 92
Dewpt66 66 67 68 69 69 69 70 71 72 73 72 71
Altim30.03 30.02 30.03 30.04 30.04 30.05 30.06 30.07 30.08 30.09 30.09 30.09 30.09
VIS10 10 10 10 10 10 10 10 10 10 10 10 10
CIG250 250 250 -- 250 250 250 250 250 250 -- 250 --
CoverOVCOVCOVCSCTBKNBKNBKNBKNBKNBKNCLRBKNSCT
FltCatVFRVFRVFRVFRVFRVFRVFRVFRVFRVFRVFRVFRVFR
WX--------------------------
WDir21013022029036035034035036040308080
WSpd5 4 6 5 4 6 4 4 4 5 5 5 7
WGst-- -- -- -- -- -- -- -- -- -- -- -- --
Raw hourly METARs
KDCA 200352Z 21005KT 10SM SCT090 OVC250 27/19 A3003 RMK AO2 WSHFT 0300 TSB00E50 SLP169 T02720189
KDCA 200452Z 13004KT 10SM FEW075 SCT090 OVC250 27/19 A3002 RMK AO2 SLP166 T02720189 403670256
KDCA 200552Z 22006KT 10SM FEW090 OVC250 27/19 A3003 RMK AO2 SLP170 T02670194 10311 20267 53001
KDCA 200652Z 29005KT 10SM SCT250 26/20 A3004 RMK AO2 SLP172 T02610200
KDCA 200752Z 36004KT 10SM BKN250 25/21 A3004 RMK AO2 SLP172 T02500206
KDCA 200852Z 35006KT 10SM BKN250 24/21 A3005 RMK AO2 SLP176 T02440206 53006
KDCA 200952Z 34004KT 10SM SCT150 BKN250 24/21 A3006 RMK AO2 SLP178 T02440206
KDCA 201052Z 35004KT 10SM FEW130 BKN250 26/21 A3007 RMK AO2 SLP181 T02560211
KDCA 201152Z 36004KT 10SM FEW160 BKN250 27/22 A3008 RMK AO2 SLP186 T02720217 10272 20244 53010
KDCA 201252Z 04005KT 10SM FEW160 BKN250 29/22 A3009 RMK AO2 SLP190 T02890222
KDCA 201352Z 03005KT 10SM CLR 30/23 A3009 RMK AO2 SLP189 T03000228
KDCA 201452Z 08005KT 10SM BKN250 33/22 A3009 RMK AO2 SLP190 T03280222 51004
KDCA 201552Z 08007KT 10SM FEW045 SCT250 33/22 A3009 RMK AO2 SLP189 T03330217



Page loaded:  16:48 UTC  |   09:48 AM Pacific  |   10:48 AM Mountain  |   11:48 AM Central  |   12:48 PM Eastern

 

ADVISORIES

FORECASTS

FORECASTS

OBSERVATIONS

USER TOOLS

ABOUT US